createdAt,value
2023-02-02T00:02:16.795Z,1.87
2023-02-02T00:06:23.577Z,1.91
2023-02-02T00:10:27.647Z,1.88
2023-02-02T00:14:30.011Z,1.82
2023-02-02T00:18:32.026Z,1.63
2023-02-02T00:22:34.183Z,1.67
2023-02-02T00:26:36.882Z,1.57
2023-02-02T00:30:38.906Z,1.41
2023-02-02T00:34:40.947Z,1.44
2023-02-02T00:38:43.010Z,1.32
2023-02-02T00:42:49.225Z,1.08
2023-02-02T00:46:51.425Z,1.00
2023-02-02T00:51:02.556Z,0.77
2023-02-02T00:55:11.148Z,0.75
2023-02-02T00:59:15.571Z,0.92
2023-02-02T01:03:20.752Z,0.93
2023-02-02T01:07:26.366Z,0.83
2023-02-02T01:11:31.053Z,0.83
2023-02-02T01:15:33.257Z,0.77
2023-02-02T01:19:35.330Z,0.86
2023-02-02T01:23:45.753Z,1.05
2023-02-02T01:27:55.525Z,1.15
2023-02-02T01:31:58.615Z,1.25
2023-02-02T01:36:04.278Z,1.05
2023-02-02T01:40:48.553Z,1.11
2023-02-02T01:45:07.014Z,1.10
2023-02-02T01:49:25.665Z,0.91
2023-02-02T01:53:33.745Z,0.82
2023-02-02T01:57:43.856Z,1.06
2023-02-02T02:01:48.933Z,1.34
2023-02-02T02:05:54.940Z,1.44
2023-02-02T02:09:57.239Z,1.55
2023-02-02T02:14:40.413Z,1.52
2023-02-02T02:18:43.421Z,1.62
2023-02-02T02:23:10.210Z,1.65
2023-02-02T02:27:18.334Z,1.50
2023-02-02T02:31:43.911Z,1.47
2023-02-02T02:35:49.251Z,1.39
2023-02-02T02:39:57.867Z,0.96
2023-02-02T02:44:09.639Z,0.72
2023-02-02T02:48:15.131Z,0.68
2023-02-02T02:52:17.548Z,0.47
2023-02-02T02:56:34.926Z,0.51
2023-02-02T03:00:48.306Z,0.52
2023-02-02T03:05:10.469Z,0.35
2023-02-02T03:09:15.787Z,0.13
2023-02-02T03:13:17.973Z,0.19
2023-02-02T03:17:22.479Z,0.31
2023-02-02T03:21:30.530Z,0.44
2023-02-02T03:25:32.624Z,0.47
2023-02-02T03:29:34.862Z,0.52
2023-02-02T03:33:37.715Z,0.59
2023-02-02T03:37:39.639Z,0.52
2023-02-02T03:41:41.788Z,0.51
2023-02-02T03:45:43.784Z,0.50
2023-02-02T03:49:57.606Z,0.52
2023-02-02T03:53:59.800Z,0.49
2023-02-02T03:58:01.688Z,0.52
2023-02-02T04:02:10.159Z,0.39
2023-02-02T04:06:16.488Z,0.41
2023-02-02T04:10:18.662Z,0.43
2023-02-02T04:14:23.662Z,0.37
2023-02-02T04:18:34.881Z,-0.05
2023-02-02T04:22:37.031Z,-0.16
2023-02-02T04:26:39.445Z,-0.39
2023-02-02T04:30:41.880Z,-0.46
2023-02-02T04:34:44.615Z,-0.38
2023-02-02T04:38:49.306Z,-0.36
2023-02-02T04:42:51.506Z,-0.46
2023-02-02T04:46:53.487Z,-0.45
2023-02-02T04:51:01.804Z,-0.48
2023-02-02T04:55:04.077Z,-0.36
2023-02-02T04:59:06.064Z,-0.15
2023-02-02T05:03:08.179Z,-0.13
2023-02-02T05:07:10.190Z,-0.27
2023-02-02T05:11:13.723Z,-0.50
2023-02-02T05:15:17.498Z,-0.54
2023-02-02T05:19:19.591Z,-0.56
2023-02-02T05:23:21.596Z,-0.52
2023-02-02T05:27:27.190Z,-0.50
2023-02-02T05:31:30.903Z,-0.51
2023-02-02T05:35:33.233Z,-0.34
2023-02-02T05:39:35.475Z,-0.19
2023-02-02T05:43:40.039Z,-0.10
2023-02-02T05:47:42.056Z,-0.07
2023-02-02T05:51:46.595Z,-0.09
2023-02-02T05:55:48.738Z,-0.17
2023-02-02T05:59:50.983Z,-0.36
2023-02-02T06:03:53.179Z,-0.48
2023-02-02T06:07:55.335Z,-0.80
2023-02-02T06:11:57.731Z,-0.88
2023-02-02T06:15:59.801Z,-0.93
2023-02-02T06:20:02.185Z,-1.09
2023-02-02T06:24:04.464Z,-1.02
2023-02-02T06:28:07.912Z,-0.96
2023-02-02T06:32:10.166Z,-0.87
2023-02-02T06:36:12.262Z,-0.67
2023-02-02T06:40:14.245Z,-0.56
2023-02-02T06:44:16.233Z,-0.40
2023-02-02T06:48:18.327Z,-0.37
2023-02-02T06:52:20.389Z,-0.75
2023-02-02T06:56:22.966Z,-0.71
2023-02-02T07:00:29.512Z,-0.45
2023-02-02T07:04:32.381Z,-0.37
2023-02-02T07:08:34.392Z,-0.31
2023-02-02T07:12:36.571Z,-0.05
2023-02-02T07:16:38.550Z,0.18
2023-02-02T07:20:40.609Z,0.27
2023-02-02T07:24:42.584Z,0.43
2023-02-02T07:28:45.143Z,0.56
2023-02-02T07:32:50.681Z,0.69
2023-02-02T07:36:52.787Z,0.80
2023-02-02T07:40:54.828Z,0.61
2023-02-02T07:44:57.335Z,0.32
2023-02-02T07:49:00.405Z,0.60
2023-02-02T07:53:02.433Z,0.71
2023-02-02T07:57:04.453Z,0.83
2023-02-02T08:01:07.671Z,0.72
2023-02-02T08:05:10.077Z,0.78
2023-02-02T08:09:12.785Z,0.90
2023-02-02T08:13:14.763Z,1.29
2023-02-02T08:17:17.315Z,1.40
2023-02-02T08:21:19.842Z,1.48
2023-02-02T08:25:21.821Z,1.67
2023-02-02T08:29:23.869Z,2.02
2023-02-02T08:33:25.911Z,2.35
2023-02-02T08:37:27.937Z,2.85
2023-02-02T08:41:30.065Z,3.17
2023-02-02T08:46:01.236Z,3.38
2023-02-02T08:49:54.354Z,3.60
2023-02-02T08:53:56.638Z,3.67
2023-02-02T08:57:58.634Z,3.69
2023-02-02T09:02:00.688Z,3.76
2023-02-02T09:06:21.302Z,3.83
2023-02-02T09:10:23.512Z,4.05
2023-02-02T09:14:25.606Z,4.20
2023-02-02T09:18:27.666Z,4.40
2023-02-02T09:22:30.001Z,4.67
2023-02-02T09:26:32.430Z,4.88
2023-02-02T09:30:35.662Z,5.15
2023-02-02T09:34:40.102Z,5.36
2023-02-02T09:38:42.613Z,5.63
2023-02-02T09:43:04.221Z,5.83
2023-02-02T09:47:18.251Z,6.09
2023-02-02T09:51:23.649Z,6.24
2023-02-02T09:55:32.895Z,6.41
2023-02-02T09:59:37.207Z,6.62
2023-02-02T10:04:02.031Z,6.77
2023-02-02T10:08:07.798Z,6.95
2023-02-02T10:12:28.782Z,7.17
2023-02-02T10:16:31.382Z,7.38
2023-02-02T10:20:39.617Z,7.60
2023-02-02T10:24:42.704Z,7.84
2023-02-02T10:29:07.990Z,7.98
2023-02-02T10:33:18.592Z,8.18
2023-02-02T10:37:50.410Z,8.24
2023-02-02T10:41:58.524Z,8.28
2023-02-02T10:46:01.613Z,8.48
2023-02-02T10:50:12.878Z,8.49
2023-02-02T10:54:55.308Z,8.66
2023-02-02T10:59:03.956Z,8.80
2023-02-02T11:03:07.380Z,8.86
2023-02-02T11:07:10.902Z,8.92
2023-02-02T11:11:21.805Z,9.07
2023-02-02T11:15:25.985Z,9.20
2023-02-02T11:19:29.917Z,9.23
2023-02-02T11:23:32.501Z,9.34
2023-02-02T11:27:42.767Z,9.52
2023-02-02T11:31:45.309Z,9.58
2023-02-02T11:35:55.022Z,9.77
2023-02-02T11:40:17.089Z,9.88
2023-02-02T11:44:24.942Z,10.03
2023-02-02T11:48:37.703Z,10.19
2023-02-02T11:52:40.771Z,10.45
2023-02-02T11:56:48.496Z,10.51
2023-02-02T12:00:58.574Z,10.62
2023-02-02T12:05:16.257Z,10.60
2023-02-02T12:09:21.572Z,10.80
2023-02-02T12:13:29.678Z,10.78
2023-02-02T12:17:33.158Z,10.76
2023-02-02T12:21:41.372Z,10.86
2023-02-02T12:25:59.271Z,10.93
2023-02-02T12:30:20.125Z,10.93
2023-02-02T12:34:25.090Z,11.03
2023-02-02T12:38:27.057Z,11.01
2023-02-02T12:42:41.258Z,11.07
2023-02-02T12:46:50.031Z,11.26
2023-02-02T12:50:52.027Z,11.46
2023-02-02T12:54:57.755Z,11.47
2023-02-02T12:59:20.211Z,11.52
2023-02-02T13:03:25.387Z,11.64
2023-02-02T13:07:40.747Z,11.68
2023-02-02T13:11:56.153Z,11.68
2023-02-02T13:16:13.144Z,11.74
2023-02-02T13:20:24.610Z,11.79
2023-02-02T13:24:28.725Z,11.81
2023-02-02T13:28:49.541Z,11.91
2023-02-02T13:32:53.283Z,12.00
2023-02-02T13:37:01.986Z,12.06
2023-02-02T13:41:07.893Z,11.99
2023-02-02T13:45:30.178Z,12.04
2023-02-02T13:49:52.672Z,12.13
2023-02-02T13:54:12.206Z,12.23
2023-02-02T13:58:23.467Z,12.14
2023-02-02T14:02:45.650Z,12.22
2023-02-02T14:06:59.466Z,12.19
2023-02-02T14:11:03.305Z,12.17
2023-02-02T14:15:07.124Z,12.23
2023-02-02T14:19:35.212Z,12.27
2023-02-02T14:23:57.773Z,12.32
2023-02-02T14:28:00.972Z,12.36
2023-02-02T14:32:03.044Z,12.35
2023-02-02T14:36:05.724Z,12.32
2023-02-02T14:40:08.666Z,12.34
2023-02-02T14:44:10.762Z,12.26
2023-02-02T14:48:16.096Z,12.31
2023-02-02T14:52:22.208Z,12.34
2023-02-02T14:56:41.631Z,12.28
2023-02-02T15:00:45.049Z,12.23
2023-02-02T15:04:49.568Z,12.21
2023-02-02T15:09:10.406Z,12.24
2023-02-02T15:13:16.602Z,12.25
2023-02-02T15:17:27.954Z,12.13
2023-02-02T15:21:31.888Z,12.12
2023-02-02T15:25:36.536Z,12.10
2023-02-02T15:29:44.239Z,12.12
2023-02-02T15:33:48.487Z,12.03
2023-02-02T15:37:54.301Z,11.78
2023-02-02T15:42:17.048Z,11.70
2023-02-02T15:46:24.604Z,11.55
2023-02-02T15:50:27.206Z,11.53
2023-02-02T15:54:30.524Z,11.41
2023-02-02T15:58:34.367Z,11.31
2023-02-02T16:02:39.591Z,11.19
2023-02-02T16:06:42.048Z,11.09
2023-02-02T16:10:46.552Z,10.96
2023-02-02T16:14:52.357Z,10.83
2023-02-02T16:19:20.778Z,10.68
2023-02-02T16:23:31.530Z,10.51
2023-02-02T16:27:34.301Z,10.31
2023-02-02T16:31:36.522Z,10.14
2023-02-02T16:35:39.098Z,9.85
2023-02-02T16:39:41.558Z,9.47
2023-02-02T16:43:43.638Z,9.12
2023-02-02T16:47:45.677Z,8.70
2023-02-02T16:51:49.258Z,8.40
2023-02-02T16:55:51.868Z,8.16
2023-02-02T16:59:55.776Z,7.97
2023-02-02T17:03:58.376Z,7.83
2023-02-02T17:08:04.541Z,7.63
2023-02-02T17:12:30.755Z,7.51
2023-02-02T17:16:34.565Z,7.25
2023-02-02T17:20:36.654Z,7.06
2023-02-02T17:24:38.691Z,6.93
2023-02-02T17:28:41.470Z,6.77
2023-02-02T17:32:43.847Z,6.62
2023-02-02T17:36:45.778Z,6.53
2023-02-02T17:40:48.594Z,6.51
2023-02-02T17:44:50.638Z,6.57
2023-02-02T17:48:52.600Z,6.65
2023-02-02T17:52:54.877Z,6.57
2023-02-02T17:56:56.852Z,6.44
2023-02-02T18:00:59.484Z,6.36
2023-02-02T18:05:02.075Z,6.28
2023-02-02T18:09:04.180Z,6.15
2023-02-02T18:13:06.517Z,6.00
2023-02-02T18:17:09.123Z,5.75
2023-02-02T18:21:11.486Z,5.70
2023-02-02T18:25:14.105Z,5.68
2023-02-02T18:29:16.246Z,5.48
2023-02-02T18:33:19.860Z,5.13
2023-02-02T18:37:26.001Z,5.04
2023-02-02T18:41:27.961Z,4.92
2023-02-02T18:45:30.223Z,5.08
2023-02-02T18:49:32.489Z,5.00
2023-02-02T18:53:34.989Z,4.96
2023-02-02T18:57:37.188Z,4.75
2023-02-02T19:01:39.376Z,4.51
2023-02-02T19:06:00.161Z,4.34
2023-02-02T19:10:02.318Z,4.39
2023-02-02T19:14:06.365Z,4.41
2023-02-02T19:18:27.259Z,4.34
2023-02-02T19:22:32.341Z,4.31
2023-02-02T19:26:37.373Z,4.26
2023-02-02T19:30:45.037Z,4.18
2023-02-02T19:34:47.519Z,4.02
2023-02-02T19:38:51.981Z,3.97
2023-02-02T19:43:00.167Z,3.98
2023-02-02T19:47:02.886Z,3.98
2023-02-02T19:51:26.240Z,3.54
2023-02-02T19:55:29.701Z,3.36
2023-02-02T19:59:35.467Z,3.37
2023-02-02T20:03:44.028Z,3.41
2023-02-02T20:07:46.551Z,3.40
2023-02-02T20:11:51.421Z,3.44
2023-02-02T20:16:03.582Z,3.30
2023-02-02T20:20:19.578Z,3.15
2023-02-02T20:24:50.069Z,3.14
2023-02-02T20:28:53.117Z,3.25
2023-02-02T20:32:56.075Z,3.31
2023-02-02T20:37:02.753Z,2.89
2023-02-02T20:41:05.945Z,2.68
2023-02-02T20:45:07.906Z,2.82
2023-02-02T20:49:09.940Z,2.77
2023-02-02T20:53:14.808Z,2.88
2023-02-02T20:57:17.791Z,2.78
2023-02-02T21:01:19.772Z,2.69
2023-02-02T21:05:22.307Z,2.75
2023-02-02T21:09:24.295Z,2.78
2023-02-02T21:13:26.262Z,2.84
2023-02-02T21:17:28.260Z,2.97
2023-02-02T21:21:30.634Z,2.85
2023-02-02T21:25:32.744Z,2.69
2023-02-02T21:29:35.349Z,2.51
2023-02-02T21:33:37.575Z,2.08
2023-02-02T21:37:40.613Z,1.87
2023-02-02T21:41:42.789Z,1.58
2023-02-02T21:45:49.612Z,1.52
2023-02-02T21:49:52.962Z,1.51
2023-02-02T21:53:57.263Z,1.61
2023-02-02T21:58:00.385Z,1.63
2023-02-02T22:02:18.461Z,1.69
2023-02-02T22:06:26.420Z,1.57
2023-02-02T22:10:34.528Z,1.43
2023-02-02T22:14:37.829Z,1.43
2023-02-02T22:18:40.057Z,1.40
2023-02-02T22:22:44.959Z,1.42
2023-02-02T22:26:47.776Z,1.46
2023-02-02T22:30:51.460Z,1.22
2023-02-02T22:34:53.497Z,1.21
2023-02-02T22:38:55.463Z,1.22
2023-02-02T22:43:05.845Z,1.22
2023-02-02T22:47:07.851Z,1.21
2023-02-02T22:51:09.863Z,1.18
2023-02-02T22:55:12.312Z,1.13
2023-02-02T22:59:14.491Z,1.20
2023-02-02T23:03:16.480Z,1.26
2023-02-02T23:07:18.386Z,1.23
2023-02-02T23:11:20.312Z,1.34
2023-02-02T23:15:22.998Z,1.40
2023-02-02T23:19:25.037Z,1.39
2023-02-02T23:23:27.030Z,1.42
2023-02-02T23:27:28.997Z,1.44
2023-02-02T23:31:31.151Z,1.14
2023-02-02T23:35:33.177Z,1.08
2023-02-02T23:39:35.360Z,0.79
2023-02-02T23:43:39.536Z,0.94
2023-02-02T23:47:41.691Z,1.00
2023-02-02T23:51:44.427Z,1.11
2023-02-02T23:55:47.526Z,1.18
2023-02-02T23:59:49.708Z,1.19
